Terminal Aerodrome Forecast
Issued by NWS Huntsville, AL

Home | Current Version | Previous Version | Text Only | Print | Product List | Glossary On
Versions: 1 2 3 4 5 6 7 8 9 10 11 12 13 14 15 16 17 18 19 20 21
000
FTUS44 KHUN 260748 AAA
TAFMSL
TAF AMD
KMSL 260748Z 2608/2706 00000KT 6SM BR SKC
      TEMPO 2608/2610 2SM BR
     FM261000 00000KT 3SM BR SKC
     FM261200 VRB03KT P6SM FEW040
     FM261800 35005KT P6SM FEW050=

USA.gov is the U.S. government's official web portal to all federal, state and local government web resources and services.